sensor_id;sensor_type;location;lat;lon;timestamp;P1;durP1;ratioP1;P2;durP2;ratioP2
27566;SDS011;15006;48.584;9.186;2023-01-06T00:00:44;2.30;;;1.90;;
27566;SDS011;15006;48.584;9.186;2023-01-06T00:03:19;3.53;;;2.50;;
27566;SDS011;15006;48.584;9.186;2023-01-06T00:05:47;2.63;;;2.42;;
27566;SDS011;15006;48.584;9.186;2023-01-06T00:08:22;2.38;;;2.20;;
27566;SDS011;15006;48.584;9.186;2023-01-06T00:10:49;4.38;;;2.58;;
27566;SDS011;15006;48.584;9.186;2023-01-06T00:13:15;2.40;;;2.30;;
27566;SDS011;15006;48.584;9.186;2023-01-06T00:15:43;2.47;;;2.38;;
27566;SDS011;15006;48.584;9.186;2023-01-06T00:18:10;2.33;;;2.13;;
27566;SDS011;15006;48.584;9.186;2023-01-06T00:20:39;2.08;;;1.98;;
27566;SDS011;15006;48.584;9.186;2023-01-06T00:23:08;2.08;;;1.98;;
27566;SDS011;15006;48.584;9.186;2023-01-06T00:25:37;2.03;;;1.93;;
27566;SDS011;15006;48.584;9.186;2023-01-06T00:28:03;2.05;;;1.95;;
27566;SDS011;15006;48.584;9.186;2023-01-06T00:30:31;2.20;;;2.00;;
27566;SDS011;15006;48.584;9.186;2023-01-06T00:32:59;2.00;;;1.90;;
27566;SDS011;15006;48.584;9.186;2023-01-06T00:35:27;2.25;;;2.15;;
27566;SDS011;15006;48.584;9.186;2023-01-06T00:37:56;2.10;;;2.00;;
27566;SDS011;15006;48.584;9.186;2023-01-06T00:40:25;2.10;;;2.00;;
27566;SDS011;15006;48.584;9.186;2023-01-06T00:42:53;2.00;;;1.90;;
27566;SDS011;15006;48.584;9.186;2023-01-06T00:45:22;2.03;;;1.92;;
27566;SDS011;15006;48.584;9.186;2023-01-06T00:47:49;1.95;;;1.85;;
27566;SDS011;15006;48.584;9.186;2023-01-06T00:50:15;2.00;;;1.90;;
27566;SDS011;15006;48.584;9.186;2023-01-06T00:52:42;2.28;;;2.17;;
27566;SDS011;15006;48.584;9.186;2023-01-06T00:55:08;2.20;;;2.10;;
27566;SDS011;15006;48.584;9.186;2023-01-06T00:57:34;2.03;;;1.92;;
27566;SDS011;15006;48.584;9.186;2023-01-06T01:00:00;2.10;;;2.00;;
27566;SDS011;15006;48.584;9.186;2023-01-06T01:02:28;1.88;;;1.77;;
27566;SDS011;15006;48.584;9.186;2023-01-06T01:04:56;2.15;;;2.05;;
27566;SDS011;15006;48.584;9.186;2023-01-06T01:07:23;2.28;;;2.15;;
27566;SDS011;15006;48.584;9.186;2023-01-06T01:09:52;2.22;;;2.13;;
27566;SDS011;15006;48.584;9.186;2023-01-06T01:12:20;3.40;;;1.98;;
27566;SDS011;15006;48.584;9.186;2023-01-06T01:14:47;2.22;;;2.08;;
27566;SDS011;15006;48.584;9.186;2023-01-06T01:17:21;2.10;;;2.00;;
27566;SDS011;15006;48.584;9.186;2023-01-06T01:19:52;2.30;;;2.10;;
27566;SDS011;15006;48.584;9.186;2023-01-06T01:22:20;2.28;;;2.17;;
27566;SDS011;15006;48.584;9.186;2023-01-06T01:24:47;1.90;;;1.80;;
27566;SDS011;15006;48.584;9.186;2023-01-06T01:27:13;2.53;;;1.88;;
27566;SDS011;15006;48.584;9.186;2023-01-06T01:29:40;2.25;;;2.10;;
27566;SDS011;15006;48.584;9.186;2023-01-06T01:32:06;1.70;;;1.60;;
27566;SDS011;15006;48.584;9.186;2023-01-06T01:34:32;2.03;;;1.92;;
27566;SDS011;15006;48.584;9.186;2023-01-06T01:36:58;2.10;;;1.88;;
27566;SDS011;15006;48.584;9.186;2023-01-06T01:39:26;5.80;;;1.52;;
27566;SDS011;15006;48.584;9.186;2023-01-06T01:41:53;2.10;;;2.00;;
27566;SDS011;15006;48.584;9.186;2023-01-06T01:49:56;2.40;;;2.20;;
27566;SDS011;15006;48.584;9.186;2023-01-06T01:52:37;3.50;;;2.50;;
27566;SDS011;15006;48.584;9.186;2023-01-06T01:55:06;2.60;;;2.40;;
27566;SDS011;15006;48.584;9.186;2023-01-06T01:57:34;2.53;;;2.33;;
27566;SDS011;15006;48.584;9.186;2023-01-06T02:00:08;2.70;;;2.50;;
27566;SDS011;15006;48.584;9.186;2023-01-06T02:02:35;2.92;;;2.72;;
27566;SDS011;15006;48.584;9.186;2023-01-06T02:05:04;2.80;;;2.60;;
27566;SDS011;15006;48.584;9.186;2023-01-06T02:07:32;3.95;;;3.00;;
27566;SDS011;15006;48.584;9.186;2023-01-06T02:12:42;2.65;;;2.25;;
27566;SDS011;15006;48.584;9.186;2023-01-06T02:15:31;2.50;;;2.30;;
27566;SDS011;15006;48.584;9.186;2023-01-06T02:18:06;2.75;;;2.55;;
27566;SDS011;15006;48.584;9.186;2023-01-06T02:26:49;2.25;;;2.15;;
27566;SDS011;15006;48.584;9.186;2023-01-06T02:35:13;2.20;;;2.10;;
27566;SDS011;15006;48.584;9.186;2023-01-06T02:46:25;2.40;;;2.20;;
27566;SDS011;15006;48.584;9.186;2023-01-06T02:49:39;2.15;;;2.05;;
27566;SDS011;15006;48.584;9.186;2023-01-06T02:55:04;2.42;;;2.20;;
27566;SDS011;15006;48.584;9.186;2023-01-06T02:57:41;2.65;;;2.55;;
27566;SDS011;15006;48.584;9.186;2023-01-06T03:03:02;2.40;;;2.20;;
27566;SDS011;15006;48.584;9.186;2023-01-06T03:05:34;2.40;;;2.30;;
27566;SDS011;15006;48.584;9.186;2023-01-06T03:08:03;2.15;;;2.05;;
27566;SDS011;15006;48.584;9.186;2023-01-06T03:10:36;2.35;;;2.20;;
27566;SDS011;15006;48.584;9.186;2023-01-06T03:13:09;2.20;;;2.10;;
27566;SDS011;15006;48.584;9.186;2023-01-06T03:15:43;2.50;;;2.15;;
27566;SDS011;15006;48.584;9.186;2023-01-06T03:18:09;2.38;;;2.28;;
27566;SDS011;15006;48.584;9.186;2023-01-06T03:20:35;2.50;;;2.30;;
27566;SDS011;15006;48.584;9.186;2023-01-06T03:23:01;2.38;;;2.28;;
27566;SDS011;15006;48.584;9.186;2023-01-06T03:25:27;1.92;;;1.83;;
27566;SDS011;15006;48.584;9.186;2023-01-06T03:27:53;2.53;;;1.90;;
27566;SDS011;15006;48.584;9.186;2023-01-06T03:30:19;1.70;;;1.60;;
27566;SDS011;15006;48.584;9.186;2023-01-06T03:32:54;1.92;;;1.50;;
27566;SDS011;15006;48.584;9.186;2023-01-06T03:41:04;3.08;;;1.60;;
27566;SDS011;15006;48.584;9.186;2023-01-06T03:44:12;1.33;;;1.30;;
27566;SDS011;15006;48.584;9.186;2023-01-06T03:46:59;1.73;;;1.45;;
27566;SDS011;15006;48.584;9.186;2023-01-06T03:49:34;1.70;;;1.60;;
27566;SDS011;15006;48.584;9.186;2023-01-06T03:55:19;1.63;;;1.52;;
27566;SDS011;15006;48.584;9.186;2023-01-06T03:57:49;1.70;;;1.50;;
27566;SDS011;15006;48.584;9.186;2023-01-06T04:00:37;1.42;;;1.33;;
27566;SDS011;15006;48.584;9.186;2023-01-06T04:03:11;1.30;;;1.30;;
27566;SDS011;15006;48.584;9.186;2023-01-06T04:05:38;1.25;;;1.25;;
27566;SDS011;15006;48.584;9.186;2023-01-06T04:08:04;1.50;;;1.40;;
27566;SDS011;15006;48.584;9.186;2023-01-06T04:10:30;1.40;;;1.30;;
27566;SDS011;15006;48.584;9.186;2023-01-06T04:12:56;2.42;;;1.35;;
27566;SDS011;15006;48.584;9.186;2023-01-06T04:15:23;1.00;;;1.00;;
27566;SDS011;15006;48.584;9.186;2023-01-06T04:17:51;1.58;;;1.48;;
27566;SDS011;15006;48.584;9.186;2023-01-06T04:20:19;2.20;;;2.10;;
27566;SDS011;15006;48.584;9.186;2023-01-06T04:25:14;1.92;;;1.83;;
27566;SDS011;15006;48.584;9.186;2023-01-06T04:27:41;2.60;;;2.45;;
27566;SDS011;15006;48.584;9.186;2023-01-06T04:30:08;3.08;;;2.78;;
27566;SDS011;15006;48.584;9.186;2023-01-06T04:32:34;2.78;;;2.58;;
27566;SDS011;15006;48.584;9.186;2023-01-06T04:35:00;2.92;;;2.45;;
27566;SDS011;15006;48.584;9.186;2023-01-06T04:37:26;2.83;;;2.63;;
27566;SDS011;15006;48.584;9.186;2023-01-06T04:39:52;2.30;;;2.20;;
27566;SDS011;15006;48.584;9.186;2023-01-06T04:42:18;4.18;;;2.80;;
27566;SDS011;15006;48.584;9.186;2023-01-06T04:44:44;3.10;;;2.90;;
27566;SDS011;15006;48.584;9.186;2023-01-06T04:47:10;2.97;;;2.78;;
27566;SDS011;15006;48.584;9.186;2023-01-06T04:49:36;2.90;;;2.80;;
27566;SDS011;15006;48.584;9.186;2023-01-06T04:52:03;2.97;;;2.80;;
27566;SDS011;15006;48.584;9.186;2023-01-06T04:54:29;3.50;;;3.20;;
27566;SDS011;15006;48.584;9.186;2023-01-06T04:56:55;5.65;;;3.05;;
27566;SDS011;15006;48.584;9.186;2023-01-06T04:59:21;3.00;;;2.80;;
27566;SDS011;15006;48.584;9.186;2023-01-06T05:01:47;3.45;;;3.15;;
27566;SDS011;15006;48.584;9.186;2023-01-06T05:04:13;3.45;;;3.25;;
27566;SDS011;15006;48.584;9.186;2023-01-06T05:06:39;4.78;;;3.22;;
27566;SDS011;15006;48.584;9.186;2023-01-06T05:09:05;5.60;;;3.47;;
27566;SDS011;15006;48.584;9.186;2023-01-06T05:11:31;3.60;;;3.38;;
27566;SDS011;15006;48.584;9.186;2023-01-06T05:13:57;3.72;;;3.42;;
27566;SDS011;15006;48.584;9.186;2023-01-06T05:16:28;3.63;;;3.33;;
27566;SDS011;15006;48.584;9.186;2023-01-06T05:18:57;3.35;;;3.15;;
27566;SDS011;15006;48.584;9.186;2023-01-06T05:21:23;3.30;;;3.10;;
27566;SDS011;15006;48.584;9.186;2023-01-06T05:23:52;3.70;;;3.50;;
27566;SDS011;15006;48.584;9.186;2023-01-06T05:26:20;3.70;;;3.50;;
27566;SDS011;15006;48.584;9.186;2023-01-06T05:28:49;4.10;;;3.80;;
27566;SDS011;15006;48.584;9.186;2023-01-06T05:31:15;3.63;;;3.42;;
27566;SDS011;15006;48.584;9.186;2023-01-06T05:33:41;4.30;;;3.53;;
27566;SDS011;15006;48.584;9.186;2023-01-06T05:36:09;3.60;;;3.40;;
27566;SDS011;15006;48.584;9.186;2023-01-06T05:38:38;3.50;;;3.30;;
27566;SDS011;15006;48.584;9.186;2023-01-06T05:41:04;3.60;;;3.35;;
27566;SDS011;15006;48.584;9.186;2023-01-06T05:43:31;3.50;;;3.30;;
27566;SDS011;15006;48.584;9.186;2023-01-06T05:46:03;3.42;;;3.10;;
27566;SDS011;15006;48.584;9.186;2023-01-06T05:48:31;3.50;;;3.30;;
27566;SDS011;15006;48.584;9.186;2023-01-06T05:51:04;3.63;;;3.42;;
27566;SDS011;15006;48.584;9.186;2023-01-06T05:56:07;3.47;;;2.75;;
27566;SDS011;15006;48.584;9.186;2023-01-06T05:58:36;3.22;;;3.03;;
27566;SDS011;15006;48.584;9.186;2023-01-06T06:01:12;2.90;;;2.72;;
27566;SDS011;15006;48.584;9.186;2023-01-06T06:03:48;4.35;;;3.03;;
27566;SDS011;15006;48.584;9.186;2023-01-06T06:06:15;3.17;;;2.90;;
27566;SDS011;15006;48.584;9.186;2023-01-06T06:08:42;3.00;;;2.80;;
27566;SDS011;15006;48.584;9.186;2023-01-06T06:11:09;3.10;;;2.72;;
27566;SDS011;15006;48.584;9.186;2023-01-06T06:13:38;2.85;;;2.75;;
27566;SDS011;15006;48.584;9.186;2023-01-06T06:16:10;3.00;;;2.80;;
27566;SDS011;15006;48.584;9.186;2023-01-06T06:18:39;2.80;;;2.70;;
27566;SDS011;15006;48.584;9.186;2023-01-06T06:21:10;3.75;;;2.80;;
27566;SDS011;15006;48.584;9.186;2023-01-06T06:23:37;3.35;;;3.10;;
27566;SDS011;15006;48.584;9.186;2023-01-06T06:26:04;3.80;;;3.33;;
27566;SDS011;15006;48.584;9.186;2023-01-06T06:28:32;4.13;;;3.33;;
27566;SDS011;15006;48.584;9.186;2023-01-06T06:31:10;3.67;;;3.38;;
27566;SDS011;15006;48.584;9.186;2023-01-06T06:33:39;3.00;;;2.80;;
27566;SDS011;15006;48.584;9.186;2023-01-06T06:36:05;3.05;;;2.83;;
27566;SDS011;15006;48.584;9.186;2023-01-06T06:38:37;2.95;;;2.78;;
27566;SDS011;15006;48.584;9.186;2023-01-06T06:41:03;2.55;;;2.42;;
27566;SDS011;15006;48.584;9.186;2023-01-06T06:43:29;2.58;;;2.47;;
27566;SDS011;15006;48.584;9.186;2023-01-06T06:45:56;2.08;;;1.90;;
27566;SDS011;15006;48.584;9.186;2023-01-06T06:48:22;2.42;;;1.90;;
27566;SDS011;15006;48.584;9.186;2023-01-06T06:50:55;1.80;;;1.70;;
27566;SDS011;15006;48.584;9.186;2023-01-06T06:53:22;2.10;;;2.00;;
27566;SDS011;15006;48.584;9.186;2023-01-06T06:55:48;3.30;;;2.20;;
27566;SDS011;15006;48.584;9.186;2023-01-06T06:58:13;3.00;;;2.10;;
27566;SDS011;15006;48.584;9.186;2023-01-06T07:00:39;2.20;;;2.00;;
27566;SDS011;15006;48.584;9.186;2023-01-06T07:03:05;1.73;;;1.63;;
27566;SDS011;15006;48.584;9.186;2023-01-06T07:05:31;1.00;;;1.00;;
27566;SDS011;15006;48.584;9.186;2023-01-06T07:07:57;0.98;;;0.98;;
27566;SDS011;15006;48.584;9.186;2023-01-06T07:10:23;0.98;;;0.90;;
27566;SDS011;15006;48.584;9.186;2023-01-06T07:12:49;3.85;;;0.95;;
27566;SDS011;15006;48.584;9.186;2023-01-06T07:15:15;0.90;;;0.90;;
27566;SDS011;15006;48.584;9.186;2023-01-06T07:17:41;0.80;;;0.80;;
27566;SDS011;15006;48.584;9.186;2023-01-06T07:20:07;0.90;;;0.90;;
27566;SDS011;15006;48.584;9.186;2023-01-06T07:22:40;0.90;;;0.90;;
27566;SDS011;15006;48.584;9.186;2023-01-06T07:25:07;1.02;;;0.95;;
27566;SDS011;15006;48.584;9.186;2023-01-06T07:27:34;1.00;;;1.00;;
27566;SDS011;15006;48.584;9.186;2023-01-06T07:30:00;1.05;;;1.05;;
27566;SDS011;15006;48.584;9.186;2023-01-06T07:32:28;0.73;;;0.73;;
27566;SDS011;15006;48.584;9.186;2023-01-06T07:34:55;1.10;;;1.00;;
27566;SDS011;15006;48.584;9.186;2023-01-06T07:37:21;0.60;;;0.60;;
27566;SDS011;15006;48.584;9.186;2023-01-06T07:39:47;1.17;;;0.90;;
27566;SDS011;15006;48.584;9.186;2023-01-06T07:42:12;0.75;;;0.75;;
27566;SDS011;15006;48.584;9.186;2023-01-06T07:44:38;1.00;;;0.93;;
27566;SDS011;15006;48.584;9.186;2023-01-06T07:47:05;1.67;;;1.40;;
27566;SDS011;15006;48.584;9.186;2023-01-06T07:49:31;1.15;;;1.15;;
27566;SDS011;15006;48.584;9.186;2023-01-06T07:51:57;1.05;;;1.05;;
27566;SDS011;15006;48.584;9.186;2023-01-06T07:54:23;0.93;;;0.93;;
27566;SDS011;15006;48.584;9.186;2023-01-06T07:56:49;1.17;;;1.00;;
27566;SDS011;15006;48.584;9.186;2023-01-06T07:59:15;1.60;;;1.20;;
27566;SDS011;15006;48.584;9.186;2023-01-06T08:01:41;1.02;;;0.90;;
27566;SDS011;15006;48.584;9.186;2023-01-06T08:04:07;1.00;;;1.00;;
27566;SDS011;15006;48.584;9.186;2023-01-06T08:06:33;2.00;;;1.80;;
27566;SDS011;15006;48.584;9.186;2023-01-06T08:09:00;6.97;;;6.57;;
27566;SDS011;15006;48.584;9.186;2023-01-06T08:11:26;1.50;;;1.48;;
27566;SDS011;15006;48.584;9.186;2023-01-06T08:13:53;1.70;;;1.60;;
27566;SDS011;15006;48.584;9.186;2023-01-06T08:16:19;10.50;;;7.22;;
27566;SDS011;15006;48.584;9.186;2023-01-06T08:18:46;5.53;;;4.93;;
27566;SDS011;15006;48.584;9.186;2023-01-06T08:21:12;4.22;;;2.53;;
27566;SDS011;15006;48.584;9.186;2023-01-06T08:23:38;3.85;;;3.05;;
27566;SDS011;15006;48.584;9.186;2023-01-06T08:26:05;6.55;;;5.72;;
27566;SDS011;15006;48.584;9.186;2023-01-06T08:28:40;5.55;;;4.38;;
27566;SDS011;15006;48.584;9.186;2023-01-06T08:31:08;4.32;;;3.22;;
27566;SDS011;15006;48.584;9.186;2023-01-06T08:33:43;2.85;;;2.75;;
27566;SDS011;15006;48.584;9.186;2023-01-06T08:36:12;2.97;;;2.72;;
27566;SDS011;15006;48.584;9.186;2023-01-06T08:38:40;2.97;;;2.78;;
27566;SDS011;15006;48.584;9.186;2023-01-06T08:41:07;2.80;;;2.70;;
27566;SDS011;15006;48.584;9.186;2023-01-06T08:43:34;2.95;;;2.70;;
27566;SDS011;15006;48.584;9.186;2023-01-06T08:46:01;3.05;;;2.85;;
27566;SDS011;15006;48.584;9.186;2023-01-06T08:48:31;6.05;;;2.70;;
27566;SDS011;15006;48.584;9.186;2023-01-06T08:51:06;2.65;;;2.47;;
27566;SDS011;15006;48.584;9.186;2023-01-06T08:53:45;2.22;;;2.13;;
27566;SDS011;15006;48.584;9.186;2023-01-06T08:56:12;2.75;;;2.55;;
27566;SDS011;15006;48.584;9.186;2023-01-06T08:58:51;3.03;;;2.83;;
27566;SDS011;15006;48.584;9.186;2023-01-06T09:01:24;3.80;;;3.60;;
27566;SDS011;15006;48.584;9.186;2023-01-06T09:03:53;4.47;;;4.18;;
27566;SDS011;15006;48.584;9.186;2023-01-06T09:06:20;4.35;;;4.00;;
27566;SDS011;15006;48.584;9.186;2023-01-06T09:08:46;5.75;;;4.78;;
27566;SDS011;15006;48.584;9.186;2023-01-06T09:11:15;3.72;;;3.42;;
27566;SDS011;15006;48.584;9.186;2023-01-06T09:13:42;3.78;;;3.58;;
27566;SDS011;15006;48.584;9.186;2023-01-06T09:16:09;3.55;;;3.25;;
27566;SDS011;15006;48.584;9.186;2023-01-06T09:18:36;3.00;;;2.75;;
27566;SDS011;15006;48.584;9.186;2023-01-06T09:21:03;3.17;;;2.88;;
27566;SDS011;15006;48.584;9.186;2023-01-06T09:23:30;2.47;;;2.28;;
27566;SDS011;15006;48.584;9.186;2023-01-06T09:25:57;2.47;;;2.28;;
27566;SDS011;15006;48.584;9.186;2023-01-06T09:28:23;2.05;;;1.95;;
27566;SDS011;15006;48.584;9.186;2023-01-06T09:30:50;1.73;;;1.63;;
27566;SDS011;15006;48.584;9.186;2023-01-06T09:33:16;2.17;;;1.98;;
27566;SDS011;15006;48.584;9.186;2023-01-06T09:35:43;3.25;;;2.22;;
27566;SDS011;15006;48.584;9.186;2023-01-06T09:38:14;2.78;;;2.67;;
27566;SDS011;15006;48.584;9.186;2023-01-06T09:44:15;3.75;;;3.38;;
27566;SDS011;15006;48.584;9.186;2023-01-06T09:46:52;3.20;;;3.00;;
27566;SDS011;15006;48.584;9.186;2023-01-06T09:58:22;3.05;;;2.33;;
27566;SDS011;15006;48.584;9.186;2023-01-06T10:00:53;2.80;;;2.60;;
27566;SDS011;15006;48.584;9.186;2023-01-06T10:03:24;3.88;;;3.45;;
27566;SDS011;15006;48.584;9.186;2023-01-06T10:08:40;2.70;;;2.50;;
27566;SDS011;15006;48.584;9.186;2023-01-06T10:11:25;2.28;;;2.08;;
27566;SDS011;15006;48.584;9.186;2023-01-06T10:14:12;2.30;;;2.20;;
27566;SDS011;15006;48.584;9.186;2023-01-06T10:20:07;2.72;;;2.50;;
27566;SDS011;15006;48.584;9.186;2023-01-06T10:22:55;3.38;;;1.90;;
27566;SDS011;15006;48.584;9.186;2023-01-06T10:25:52;2.60;;;2.33;;
27566;SDS011;15006;48.584;9.186;2023-01-06T10:28:30;2.40;;;2.20;;
27566;SDS011;15006;48.584;9.186;2023-01-06T10:31:31;2.03;;;1.92;;
27566;SDS011;15006;48.584;9.186;2023-01-06T10:33:59;4.88;;;2.10;;
27566;SDS011;15006;48.584;9.186;2023-01-06T10:36:38;1.90;;;1.70;;
27566;SDS011;15006;48.584;9.186;2023-01-06T10:39:12;2.63;;;2.42;;
27566;SDS011;15006;48.584;9.186;2023-01-06T10:41:48;2.03;;;1.92;;
27566;SDS011;15006;48.584;9.186;2023-01-06T10:44:14;1.80;;;1.70;;
27566;SDS011;15006;48.584;9.186;2023-01-06T10:46:42;8.18;;;7.40;;
27566;SDS011;15006;48.584;9.186;2023-01-06T10:49:16;1.88;;;1.73;;
27566;SDS011;15006;48.584;9.186;2023-01-06T10:51:47;1.80;;;1.70;;
27566;SDS011;15006;48.584;9.186;2023-01-06T10:54:28;1.65;;;1.55;;
27566;SDS011;15006;48.584;9.186;2023-01-06T10:57:02;1.80;;;1.70;;
27566;SDS011;15006;48.584;9.186;2023-01-06T10:59:34;1.85;;;1.75;;
27566;SDS011;15006;48.584;9.186;2023-01-06T11:02:33;1.50;;;1.40;;
27566;SDS011;15006;48.584;9.186;2023-01-06T11:05:00;1.50;;;1.40;;
27566;SDS011;15006;48.584;9.186;2023-01-06T11:07:27;1.70;;;1.60;;
27566;SDS011;15006;48.584;9.186;2023-01-06T11:09:54;2.40;;;1.48;;
27566;SDS011;15006;48.584;9.186;2023-01-06T11:12:22;1.52;;;1.42;;
27566;SDS011;15006;48.584;9.186;2023-01-06T11:17:27;1.20;;;1.10;;
27566;SDS011;15006;48.584;9.186;2023-01-06T11:22:39;1.15;;;1.05;;
27566;SDS011;15006;48.584;9.186;2023-01-06T11:27:45;0.77;;;0.77;;
27566;SDS011;15006;48.584;9.186;2023-01-06T11:30:25;0.60;;;0.60;;
27566;SDS011;15006;48.584;9.186;2023-01-06T11:32:53;1.55;;;0.63;;
27566;SDS011;15006;48.584;9.186;2023-01-06T11:35:21;1.15;;;0.50;;
27566;SDS011;15006;48.584;9.186;2023-01-06T11:37:55;0.50;;;0.50;;
27566;SDS011;15006;48.584;9.186;2023-01-06T11:40:25;0.40;;;0.40;;
27566;SDS011;15006;48.584;9.186;2023-01-06T11:43:00;0.50;;;0.50;;
27566;SDS011;15006;48.584;9.186;2023-01-06T11:45:36;0.43;;;0.43;;
27566;SDS011;15006;48.584;9.186;2023-01-06T11:48:05;0.35;;;0.35;;
27566;SDS011;15006;48.584;9.186;2023-01-06T11:50:48;0.50;;;0.50;;
27566;SDS011;15006;48.584;9.186;2023-01-06T11:53:17;0.50;;;0.50;;
27566;SDS011;15006;48.584;9.186;2023-01-06T11:55:58;0.47;;;0.47;;
27566;SDS011;15006;48.584;9.186;2023-01-06T11:59:03;0.73;;;0.40;;
27566;SDS011;15006;48.584;9.186;2023-01-06T12:01:49;0.50;;;0.47;;
27566;SDS011;15006;48.584;9.186;2023-01-06T12:07:03;0.63;;;0.50;;
27566;SDS011;15006;48.584;9.186;2023-01-06T12:09:41;0.40;;;0.40;;
27566;SDS011;15006;48.584;9.186;2023-01-06T12:12:11;0.50;;;0.50;;
27566;SDS011;15006;48.584;9.186;2023-01-06T12:14:50;0.80;;;0.80;;
27566;SDS011;15006;48.584;9.186;2023-01-06T12:17:20;1.13;;;0.47;;
27566;SDS011;15006;48.584;9.186;2023-01-06T12:23:04;0.50;;;0.50;;
27566;SDS011;15006;48.584;9.186;2023-01-06T12:25:37;0.50;;;0.50;;
27566;SDS011;15006;48.584;9.186;2023-01-06T12:28:15;0.40;;;0.40;;
27566;SDS011;15006;48.584;9.186;2023-01-06T12:35:53;1.08;;;1.08;;
27566;SDS011;15006;48.584;9.186;2023-01-06T12:44:27;0.40;;;0.40;;
27566;SDS011;15006;48.584;9.186;2023-01-06T12:47:30;0.52;;;0.50;;
27566;SDS011;15006;48.584;9.186;2023-01-06T12:50:08;0.75;;;0.43;;
27566;SDS011;15006;48.584;9.186;2023-01-06T12:53:09;0.55;;;0.55;;
27566;SDS011;15006;48.584;9.186;2023-01-06T12:58:22;0.50;;;0.50;;
27566;SDS011;15006;48.584;9.186;2023-01-06T13:01:19;0.40;;;0.40;;
27566;SDS011;15006;48.584;9.186;2023-01-06T13:10:04;1.05;;;0.60;;
27566;SDS011;15006;48.584;9.186;2023-01-06T13:16:18;0.50;;;0.50;;
27566;SDS011;15006;48.584;9.186;2023-01-06T13:21:43;1.48;;;0.90;;
27566;SDS011;15006;48.584;9.186;2023-01-06T13:24:20;1.48;;;0.40;;
27566;SDS011;15006;48.584;9.186;2023-01-06T13:33:27;1.10;;;1.00;;
27566;SDS011;15006;48.584;9.186;2023-01-06T13:36:37;0.70;;;0.70;;
27566;SDS011;15006;48.584;9.186;2023-01-06T13:39:32;0.85;;;0.50;;
27566;SDS011;15006;48.584;9.186;2023-01-06T13:42:04;0.30;;;0.30;;
27566;SDS011;15006;48.584;9.186;2023-01-06T13:44:33;0.30;;;0.30;;
27566;SDS011;15006;48.584;9.186;2023-01-06T13:49:33;0.30;;;0.30;;
27566;SDS011;15006;48.584;9.186;2023-01-06T13:52:03;0.28;;;0.28;;
27566;SDS011;15006;48.584;9.186;2023-01-06T13:59:50;0.50;;;0.50;;
27566;SDS011;15006;48.584;9.186;2023-01-06T14:08:01;0.30;;;0.30;;
27566;SDS011;15006;48.584;9.186;2023-01-06T14:10:37;0.35;;;0.35;;
27566;SDS011;15006;48.584;9.186;2023-01-06T14:13:22;0.98;;;0.30;;
27566;SDS011;15006;48.584;9.186;2023-01-06T14:16:01;0.20;;;0.20;;
27566;SDS011;15006;48.584;9.186;2023-01-06T14:18:42;0.50;;;0.30;;
27566;SDS011;15006;48.584;9.186;2023-01-06T14:23:56;0.30;;;0.30;;
27566;SDS011;15006;48.584;9.186;2023-01-06T14:32:08;0.70;;;0.50;;
27566;SDS011;15006;48.584;9.186;2023-01-06T14:37:19;0.30;;;0.30;;
27566;SDS011;15006;48.584;9.186;2023-01-06T14:39:53;0.40;;;0.40;;
27566;SDS011;15006;48.584;9.186;2023-01-06T14:45:08;0.30;;;0.30;;
27566;SDS011;15006;48.584;9.186;2023-01-06T14:47:50;0.50;;;0.50;;
27566;SDS011;15006;48.584;9.186;2023-01-06T14:50:31;0.47;;;0.40;;
27566;SDS011;15006;48.584;9.186;2023-01-06T14:53:21;0.47;;;0.47;;
27566;SDS011;15006;48.584;9.186;2023-01-06T14:55:56;0.40;;;0.40;;
27566;SDS011;15006;48.584;9.186;2023-01-06T14:58:33;0.32;;;0.32;;
27566;SDS011;15006;48.584;9.186;2023-01-06T15:01:01;0.63;;;0.63;;
27566;SDS011;15006;48.584;9.186;2023-01-06T15:03:30;0.40;;;0.40;;
27566;SDS011;15006;48.584;9.186;2023-01-06T15:06:10;0.30;;;0.30;;
27566;SDS011;15006;48.584;9.186;2023-01-06T15:08:43;0.80;;;0.47;;
27566;SDS011;15006;48.584;9.186;2023-01-06T15:13:53;0.30;;;0.28;;
27566;SDS011;15006;48.584;9.186;2023-01-06T15:19:08;0.30;;;0.30;;
27566;SDS011;15006;48.584;9.186;2023-01-06T15:21:39;0.63;;;0.40;;
27566;SDS011;15006;48.584;9.186;2023-01-06T15:26:54;0.40;;;0.40;;
27566;SDS011;15006;48.584;9.186;2023-01-06T15:29:23;0.50;;;0.50;;
27566;SDS011;15006;48.584;9.186;2023-01-06T15:31:51;0.40;;;0.40;;
27566;SDS011;15006;48.584;9.186;2023-01-06T15:34:19;0.30;;;0.30;;
27566;SDS011;15006;48.584;9.186;2023-01-06T15:37:01;0.38;;;0.35;;
27566;SDS011;15006;48.584;9.186;2023-01-06T15:39:31;0.30;;;0.30;;
27566;SDS011;15006;48.584;9.186;2023-01-06T15:41:59;0.40;;;0.30;;
27566;SDS011;15006;48.584;9.186;2023-01-06T15:52:24;0.40;;;0.40;;
27566;SDS011;15006;48.584;9.186;2023-01-06T15:54:58;0.40;;;0.35;;
27566;SDS011;15006;48.584;9.186;2023-01-06T15:57:29;0.75;;;0.30;;
27566;SDS011;15006;48.584;9.186;2023-01-06T16:00:05;0.40;;;0.40;;
27566;SDS011;15006;48.584;9.186;2023-01-06T16:02:45;0.35;;;0.30;;
27566;SDS011;15006;48.584;9.186;2023-01-06T16:05:32;0.30;;;0.30;;
27566;SDS011;15006;48.584;9.186;2023-01-06T16:08:40;0.35;;;0.22;;
27566;SDS011;15006;48.584;9.186;2023-01-06T16:13:41;0.70;;;0.40;;
27566;SDS011;15006;48.584;9.186;2023-01-06T16:16:23;0.40;;;0.40;;
27566;SDS011;15006;48.584;9.186;2023-01-06T16:19:06;0.40;;;0.40;;
27566;SDS011;15006;48.584;9.186;2023-01-06T16:21:41;4.32;;;0.40;;
27566;SDS011;15006;48.584;9.186;2023-01-06T16:24:18;1.58;;;0.80;;
27566;SDS011;15006;48.584;9.186;2023-01-06T16:27:03;1.80;;;1.40;;
27566;SDS011;15006;48.584;9.186;2023-01-06T16:29:35;1.83;;;1.73;;
27566;SDS011;15006;48.584;9.186;2023-01-06T16:34:59;2.95;;;2.75;;
27566;SDS011;15006;48.584;9.186;2023-01-06T16:37:31;3.33;;;3.13;;
27566;SDS011;15006;48.584;9.186;2023-01-06T16:39:58;2.70;;;2.55;;
27566;SDS011;15006;48.584;9.186;2023-01-06T16:42:34;3.00;;;2.80;;
27566;SDS011;15006;48.584;9.186;2023-01-06T16:47:41;3.05;;;2.83;;
27566;SDS011;15006;48.584;9.186;2023-01-06T16:52:43;3.92;;;3.58;;
27566;SDS011;15006;48.584;9.186;2023-01-06T16:55:12;4.75;;;4.35;;
27566;SDS011;15006;48.584;9.186;2023-01-06T16:57:40;3.95;;;3.65;;
27566;SDS011;15006;48.584;9.186;2023-01-06T17:00:12;3.90;;;3.60;;
27566;SDS011;15006;48.584;9.186;2023-01-06T17:02:41;4.10;;;3.78;;
27566;SDS011;15006;48.584;9.186;2023-01-06T17:05:13;4.63;;;4.25;;
27566;SDS011;15006;48.584;9.186;2023-01-06T17:07:49;4.05;;;3.80;;
27566;SDS011;15006;48.584;9.186;2023-01-06T17:10:20;4.50;;;4.15;;
27566;SDS011;15006;48.584;9.186;2023-01-06T17:12:55;4.57;;;4.20;;
27566;SDS011;15006;48.584;9.186;2023-01-06T17:15:49;4.80;;;4.50;;
27566;SDS011;15006;48.584;9.186;2023-01-06T17:18:25;5.15;;;4.75;;
27566;SDS011;15006;48.584;9.186;2023-01-06T17:20:57;5.32;;;4.82;;
27566;SDS011;15006;48.584;9.186;2023-01-06T17:23:42;4.47;;;4.18;;
27566;SDS011;15006;48.584;9.186;2023-01-06T17:26:16;5.70;;;5.18;;
27566;SDS011;15006;48.584;9.186;2023-01-06T17:28:45;9.20;;;6.00;;
27566;SDS011;15006;48.584;9.186;2023-01-06T17:31:15;7.07;;;6.57;;
27566;SDS011;15006;48.584;9.186;2023-01-06T17:33:50;8.13;;;7.43;;
27566;SDS011;15006;48.584;9.186;2023-01-06T17:36:21;8.02;;;7.32;;
27566;SDS011;15006;48.584;9.186;2023-01-06T17:38:51;9.32;;;8.07;;
27566;SDS011;15006;48.584;9.186;2023-01-06T17:41:17;12.82;;;9.50;;
27566;SDS011;15006;48.584;9.186;2023-01-06T17:43:44;15.65;;;10.45;;
27566;SDS011;15006;48.584;9.186;2023-01-06T17:46:19;12.68;;;9.60;;
27566;SDS011;15006;48.584;9.186;2023-01-06T17:48:55;16.40;;;10.63;;
27566;SDS011;15006;48.584;9.186;2023-01-06T17:51:31;16.60;;;12.50;;
27566;SDS011;15006;48.584;9.186;2023-01-06T17:53:57;31.55;;;19.17;;
27566;SDS011;15006;48.584;9.186;2023-01-06T17:56:42;24.38;;;15.93;;
27566;SDS011;15006;48.584;9.186;2023-01-06T17:59:12;16.63;;;11.60;;
27566;SDS011;15006;48.584;9.186;2023-01-06T18:01:41;11.60;;;10.00;;